Time;durP1;ratioP1;P1;durP2;ratioP2;P2;SDS_P1;SDS_P2;PMS_P1;PMS_P2;Temp;Humidity;BMP_temperature;BMP_pressure;BME280_temperature;BME280_humidity;BME280_pressure;Samples;Min_cycle;Max_cycle;Signal;HPM_P1;HPM_P2
2023/01/17 00:02:16;;;;;;;14.70;8.70;;;;;;;2.64;76.33;100913.40;105751;1267;60347;-85
2023/01/17 00:10:17;;;;;;;18.20;10.10;;;;;;;2.54;76.25;100914.64;106143;1267;73555;-84
2023/01/17 00:12:50;;;;;;;20.10;9.50;;;;;;;2.46;76.50;100915.32;106018;1268;59319;-86
2023/01/17 00:15:24;;;;;;;18.60;9.20;;;;;;;2.40;76.59;100912.88;105817;1268;61288;-86
2023/01/17 00:17:52;;;;;;;16.50;9.40;;;;;;;2.35;76.73;100910.39;105738;1267;75085;-87
2023/01/17 00:26:17;;;;;;;14.50;9.30;;;;;;;2.20;77.15;100906.74;105761;1267;60560;-87
2023/01/17 04:48:02;;;;;;;21.70;11.90;;;;;;;1.04;81.91;100712.63;104222;1285;612488;-85
2023/01/17 04:50:31;;;;;;;18.30;12.10;;;;;;;1.18;80.99;100710.45;105545;1275;129678;-89
2023/01/17 04:52:59;;;;;;;19.00;11.60;;;;;;;1.20;80.59;100704.73;105812;1272;61059;-90
2023/01/17 04:55:26;;;;;;;22.80;13.50;;;;;;;1.21;80.43;100710.55;106053;1266;74056;-86
2023/01/17 04:57:54;;;;;;;23.20;11.60;;;;;;;1.24;80.02;100708.96;105927;1268;64115;-87
2023/01/17 05:00:21;;;;;;;21.20;12.80;;;;;;;1.24;79.83;100702.08;105773;1272;73707;-87
2023/01/17 05:02:50;;;;;;;22.60;13.10;;;;;;;1.25;79.69;100697.58;106072;1266;60568;-88
2023/01/17 05:05:18;;;;;;;19.90;13.70;;;;;;;1.24;79.47;100694.33;105820;1266;61231;-88
2023/01/17 05:07:55;;;;;;;24.60;12.70;;;;;;;1.26;79.54;100684.98;105509;1266;73916;-88
2023/01/17 05:10:23;;;;;;;21.50;13.00;;;;;;;1.28;79.30;100682.88;108113;1254;64475;-86
2023/01/17 05:12:57;;;;;;;23.30;14.20;;;;;;;1.28;78.92;100686.67;107657;1256;74000;-84
2023/01/17 05:15:27;;;;;;;24.00;14.30;;;;;;;1.25;78.72;100679.48;106318;1256;63271;-87
2023/01/17 05:17:54;;;;;;;21.40;12.20;;;;;;;1.24;78.55;100688.48;106857;1261;61015;-86
2023/01/17 05:20:22;;;;;;;23.30;12.20;;;;;;;1.24;78.49;100703.61;108644;1254;74349;-85
2023/01/17 05:22:54;;;;;;;21.50;12.90;;;;;;;1.23;78.44;100712.77;108294;1254;64476;-88
2023/01/17 05:25:27;;;;;;;25.70;14.10;;;;;;;1.22;78.43;100700.73;108378;1254;73331;-88
2023/01/17 05:27:55;;;;;;;23.40;13.50;;;;;;;1.21;78.23;100697.83;106697;1257;60335;-86
2023/01/17 05:30:22;;;;;;;26.80;15.00;;;;;;;1.17;78.35;100694.29;106578;1256;61362;-90
2023/01/17 05:32:50;;;;;;;21.30;13.30;;;;;;;1.15;78.22;100694.52;106135;1259;74354;-89
2023/01/17 05:35:19;;;;;;;25.70;14.50;;;;;;;1.12;78.27;100691.13;106494;1259;65480;-89
2023/01/17 05:37:50;;;;;;;24.00;14.20;;;;;;;1.11;78.41;100691.66;107058;1256;73926;-87
2023/01/17 05:40:19;;;;;;;26.20;14.50;;;;;;;1.10;78.35;100687.02;107038;1254;62228;-90
2023/01/17 05:42:48;;;;;;;23.40;14.40;;;;;;;1.10;78.55;100683.94;107255;1256;61191;-87
2023/01/17 05:45:16;;;;;;;27.60;14.60;;;;;;;1.08;78.43;100680.34;107288;1258;74314;-86
2023/01/17 05:47:45;;;;;;;25.40;14.50;;;;;;;1.08;78.48;100680.52;106888;1259;65935;-88
2023/01/17 05:50:15;;;;;;;27.20;15.90;;;;;;;1.07;78.38;100673.31;106513;1259;74469;-89
2023/01/17 05:52:57;;;;;;;32.40;17.60;;;;;;;1.04;78.37;100668.71;106524;1259;59559;-88
2023/01/17 05:55:25;;;;;;;26.50;15.20;;;;;;;1.06;78.51;100669.03;107430;1261;61119;-89
2023/01/17 05:57:53;;;;;;;28.40;14.70;;;;;;;1.04;78.41;100660.80;106449;1259;74716;-89
2023/01/17 06:00:21;;;;;;;24.50;14.80;;;;;;;1.01;78.53;100660.52;106173;1259;65862;-89
2023/01/17 06:02:48;;;;;;;25.40;16.10;;;;;;;0.98;78.78;100666.45;106606;1260;73705;-88
2023/01/17 06:05:16;;;;;;;26.20;14.70;;;;;;;0.96;78.95;100662.34;106804;1258;63048;-89
2023/01/17 06:07:44;;;;;;;26.60;15.30;;;;;;;0.96;79.08;100661.82;106577;1263;60869;-86
2023/01/17 06:10:13;;;;;;;26.30;15.40;;;;;;;0.97;79.19;100668.00;107767;1259;73990;-88
2023/01/17 06:12:41;;;;;;;28.50;17.30;;;;;;;0.99;79.27;100667.62;106804;1259;64719;-88
2023/01/17 06:15:10;;;;;;;26.80;13.70;;;;;;;1.00;79.33;100670.85;106983;1260;73753;-86
2023/01/17 06:17:38;;;;;;;24.70;14.60;;;;;;;1.02;79.38;100680.11;107053;1262;63289;-88
2023/01/17 06:20:07;;;;;;;21.00;14.30;;;;;;;1.05;79.35;100682.30;107116;1255;61227;-88
2023/01/17 06:22:34;;;;;;;27.00;16.10;;;;;;;1.09;79.44;100678.61;106438;1254;75500;-88
2023/01/17 06:25:02;;;;;;;27.60;15.50;;;;;;;1.12;79.50;100675.45;106937;1256;65744;-88
2023/01/17 06:27:29;;;;;;;26.40;14.90;;;;;;;1.15;79.45;100674.52;107220;1255;74680;-88
2023/01/17 06:30:04;;;;;;;33.00;17.00;;;;;;;1.17;79.42;100661.58;106297;1255;61394;-88
2023/01/17 06:32:31;;;;;;;26.70;15.10;;;;;;;1.18;79.53;100663.09;106750;1259;62365;-88
2023/01/17 06:34:59;;;;;;;33.70;16.90;;;;;;;1.21;79.69;100662.52;106339;1262;73389;-89
2023/01/17 06:37:26;;;;;;;29.60;16.70;;;;;;;1.25;79.70;100660.20;107583;1261;66129;-89
2023/01/17 06:39:54;;;;;;;31.60;17.60;;;;;;;1.29;79.84;100664.61;106555;1256;74776;-88
2023/01/17 06:42:22;;;;;;;31.60;18.10;;;;;;;1.37;79.94;100661.67;109320;1256;62814;-88
2023/01/17 06:44:49;;;;;;;30.60;16.10;;;;;;;1.40;79.97;100657.13;109547;1255;59568;-87
2023/01/17 06:47:16;;;;;;;25.40;15.60;;;;;;;1.43;79.82;100651.55;109439;1254;74944;-88
2023/01/17 06:49:44;;;;;;;26.90;16.20;;;;;;;1.44;80.14;100638.95;109519;1254;65855;-89
2023/01/17 06:52:12;;;;;;;37.30;17.80;;;;;;;1.48;80.17;100636.30;109407;1260;70438;-86
2023/01/17 06:54:41;;;;;;;33.70;18.10;;;;;;;1.54;80.17;100647.02;109229;1258;61490;-88
2023/01/17 06:57:08;;;;;;;30.70;18.40;;;;;;;1.58;80.13;100641.23;109248;1259;62486;-87
2023/01/17 06:59:35;;;;;;;26.50;14.90;;;;;;;1.64;80.14;100640.23;109256;1259;73948;-88
2023/01/17 07:02:02;;;;;;;26.30;16.10;;;;;;;1.67;80.01;100634.46;109193;1259;64957;-88
2023/01/17 07:04:30;;;;;;;32.70;16.10;;;;;;;1.71;80.24;100633.19;109177;1259;72857;-89
2023/01/17 07:06:59;;;;;;;31.10;16.60;;;;;;;1.74;80.20;100627.94;109039;1260;59616;-89
2023/01/17 07:09:27;;;;;;;28.70;18.70;;;;;;;1.77;80.24;100630.99;109081;1260;62433;-87
2023/01/17 07:11:58;;;;;;;36.40;19.50;;;;;;;1.81;80.35;100626.57;109008;1263;72064;-89
2023/01/17 07:14:25;;;;;;;28.30;17.80;;;;;;;1.87;80.28;100624.69;109230;1258;65024;-88
2023/01/17 07:16:54;;;;;;;35.90;20.00;;;;;;;1.92;80.30;100631.48;109129;1259;72496;-89
2023/01/17 07:19:22;;;;;;;28.20;18.10;;;;;;;1.96;80.24;100639.84;109045;1263;60952;-89
2023/01/17 07:21:51;;;;;;;33.10;17.30;;;;;;;2.01;80.33;100638.33;108677;1269;61162;-87
2023/01/17 07:24:20;;;;;;;34.00;19.70;;;;;;;2.10;80.39;100639.47;108691;1269;73927;-87
2023/01/17 07:26:50;;;;;;;35.40;19.20;;;;;;;2.18;80.11;100639.29;108629;1269;62714;-89
2023/01/17 07:29:18;;;;;;;34.50;20.20;;;;;;;2.23;80.08;100642.08;108787;1270;71822;-89
2023/01/17 07:32:03;;;;;;;34.60;20.30;;;;;;;2.27;80.05;100639.05;108536;1269;58583;-88
2023/01/17 07:34:31;;;;;;;40.90;21.00;;;;;;;2.29;80.07;100644.52;108632;1269;62262;-89
2023/01/17 07:37:00;;;;;;;33.40;18.70;;;;;;;2.31;80.08;100644.66;108693;1269;75094;-89
2023/01/17 07:39:30;;;;;;;30.00;18.70;;;;;;;2.34;80.21;100641.11;108724;1269;66771;-88
2023/01/17 07:42:12;;;;;;;36.20;21.20;;;;;;;2.42;80.32;100636.96;108447;1269;73114;-89
2023/01/17 07:44:42;;;;;;;36.90;19.50;;;;;;;2.48;80.30;100638.51;108633;1269;58749;-92
2023/01/17 07:47:13;;;;;;;31.40;19.60;;;;;;;2.57;80.56;100637.09;108680;1269;62242;-90
2023/01/17 07:49:44;;;;;;;32.90;17.40;;;;;;;2.66;80.40;100644.41;108737;1269;75081;-90
2023/01/17 07:52:16;;;;;;;31.60;19.50;;;;;;;2.73;80.39;100654.77;108768;1269;64856;-89
2023/01/17 07:54:45;;;;;;;28.90;18.10;;;;;;;2.78;80.38;100658.96;108500;1269;73292;-89
2023/01/17 07:57:13;;;;;;;31.40;19.10;;;;;;;2.84;80.32;100657.41;108578;1269;61432;-90
2023/01/17 07:59:40;;;;;;;31.70;20.00;;;;;;;2.90;80.27;100659.14;108555;1269;60786;-90
2023/01/17 08:02:19;;;;;;;36.00;19.90;;;;;;;2.96;80.31;100663.14;108645;1269;73884;-90
2023/01/17 08:04:46;;;;;;;26.00;17.60;;;;;;;3.03;80.29;100654.30;108692;1269;64671;-89
2023/01/17 08:07:14;;;;;;;26.50;17.90;;;;;;;3.10;80.24;100642.52;108461;1269;74808;-89
2023/01/17 08:09:42;;;;;;;26.60;17.30;;;;;;;3.18;80.32;100638.84;108433;1269;61716;-90
2023/01/17 08:12:11;;;;;;;27.10;19.20;;;;;;;3.25;80.29;100636.04;108607;1269;62847;-89
2023/01/17 08:14:39;;;;;;;34.10;19.70;;;;;;;3.32;80.42;100641.34;108500;1269;73697;-91
2023/01/17 08:17:12;;;;;;;34.70;19.90;;;;;;;3.39;80.09;100653.59;108715;1269;64861;-90
2023/01/17 08:19:44;;;;;;;26.80;18.60;;;;;;;3.42;80.15;100663.33;108216;1273;73672;-89
2023/01/17 08:22:13;;;;;;;30.30;19.70;;;;;;;3.46;80.38;100668.95;108136;1273;63283;-88
2023/01/17 08:24:41;;;;;;;26.20;17.30;;;;;;;3.50;80.35;100680.89;107831;1273;59680;-89
2023/01/17 08:27:10;;;;;;;26.60;18.20;;;;;;;3.57;80.56;100679.00;108162;1273;73741;-88
2023/01/17 08:29:40;;;;;;;30.10;19.30;;;;;;;3.62;80.63;100663.97;108116;1273;66064;-86
2023/01/17 08:32:13;;;;;;;29.50;19.50;;;;;;;3.71;80.78;100659.17;107868;1273;71698;-89
2023/01/17 08:34:40;;;;;;;29.50;19.50;;;;;;;3.82;80.97;100648.81;108098;1273;60478;-88
2023/01/17 08:37:10;;;;;;;40.30;20.90;;;;;;;3.92;80.63;100643.83;108237;1273;61239;-89
2023/01/17 08:43:34;;;;;;;36.90;21.30;;;;;;;4.05;80.61;100641.86;105617;1289;611723;-86
2023/01/17 08:46:23;;;;;;;29.20;18.70;;;;;;;4.13;80.75;100653.67;109137;1255;61081;-87
2023/01/17 08:49:13;;;;;;;28.20;19.10;;;;;;;4.18;80.62;100649.23;108826;1263;62909;-90
2023/01/17 09:00:28;;;;;;;34.90;22.60;;;;;;;4.34;81.04;100637.23;108734;1259;60038;-89
2023/01/17 09:03:54;;;;;;;35.50;20.20;;;;;;;4.40;81.21;100633.92;108810;1259;61798;-90
2023/01/17 09:06:38;;;;;;;33.40;22.00;;;;;;;4.44;81.22;100632.61;108623;1260;72771;-90
2023/01/17 09:09:41;;;;;;;31.40;19.00;;;;;;;4.44;81.57;100635.73;108723;1261;66810;-89
2023/01/17 09:12:25;;;;;;;35.70;22.10;;;;;;;4.47;81.63;100634.92;108699;1260;73449;-88
2023/01/17 09:14:55;;;;;;;31.30;19.50;;;;;;;4.53;81.75;100628.81;107684;1260;60387;-90
2023/01/17 09:17:38;;;;;;;35.00;20.70;;;;;;;4.61;81.66;100620.23;107460;1260;60184;-89
2023/01/17 09:20:10;;;;;;;34.50;22.20;;;;;;;4.68;81.51;100621.54;107613;1260;73182;-87
2023/01/17 09:22:41;;;;;;;37.00;21.70;;;;;;;4.73;81.56;100618.41;107950;1260;63540;-89
2023/01/17 09:25:13;;;;;;;33.20;22.00;;;;;;;4.80;81.53;100610.55;107828;1261;72641;-89
2023/01/17 09:27:45;;;;;;;36.50;20.70;;;;;;;4.86;81.62;100614.48;108231;1261;62049;-88
2023/01/17 09:30:27;;;;;;;33.60;21.90;;;;;;;4.94;81.78;100609.52;108749;1260;61890;-89
2023/01/17 09:33:00;;;;;;;34.80;22.40;;;;;;;5.00;82.03;100613.64;108679;1260;73032;-87
2023/01/17 09:35:29;;;;;;;38.30;23.60;;;;;;;5.06;81.93;100606.83;108101;1260;64793;-87
2023/01/17 09:38:23;;;;;;;36.90;25.10;;;;;;;5.12;81.81;100598.44;108549;1260;72164;-85
2023/01/17 09:40:51;;;;;;;37.60;24.70;;;;;;;5.16;81.43;100598.29;107191;1265;59755;-88
2023/01/17 09:43:39;;;;;;;39.60;23.20;;;;;;;5.17;81.33;100602.94;106935;1260;60036;-87
2023/01/17 09:46:21;;;;;;;37.20;23.80;;;;;;;5.14;81.25;100608.39;107317;1260;72341;-88
2023/01/17 09:48:55;;;;;;;33.50;20.80;;;;;;;5.12;81.81;100604.67;106685;1260;63950;-89
2023/01/17 09:51:25;;;;;;;30.10;21.00;;;;;;;5.12;82.19;100603.13;107149;1260;72672;-87
2023/01/17 09:53:52;;;;;;;37.20;24.20;;;;;;;5.15;82.71;100597.48;107138;1260;60126;-88
2023/01/17 09:56:26;;;;;;;46.90;27.30;;;;;;;5.18;82.65;100600.84;106611;1260;60135;-89
2023/01/17 09:59:19;;;;;;;34.50;24.40;;;;;;;5.21;82.58;100590.86;106979;1260;72874;-90
2023/01/17 16:05:22;;;;;;;40.90;27.00;;;;;;;5.87;95.95;100469.21;107427;1260;72383;-92
2023/01/17 16:08:04;;;;;;;40.30;27.00;;;;;;;5.86;95.85;100464.06;107044;1262;63121;-91
2023/01/17 16:10:36;;;;;;;33.50;23.70;;;;;;;5.85;96.00;100463.56;107609;1262;60341;-89
2023/01/17 16:13:05;;;;;;;38.10;24.80;;;;;;;5.84;95.86;100459.64;108407;1262;72952;-92
2023/01/17 16:15:35;;;;;;;37.50;25.10;;;;;;;5.83;96.09;100455.84;108944;1262;64232;-92
2023/01/17 16:18:27;;;;;;;31.10;22.60;;;;;;;5.84;95.88;100450.95;108725;1262;72523;-90
2023/01/17 16:20:59;;;;;;;36.50;23.10;;;;;;;5.82;96.24;100446.35;108808;1262;60827;-90
2023/01/17 16:23:27;;;;;;;31.50;21.30;;;;;;;5.83;96.25;100445.46;107211;1262;60435;-91
2023/01/17 16:25:55;;;;;;;33.00;21.60;;;;;;;5.83;96.37;100442.15;107283;1262;73663;-89
2023/01/17 16:28:28;;;;;;;39.80;27.50;;;;;;;5.83;96.34;100451.00;106895;1263;63890;-90
2023/01/17 16:31:01;;;;;;;33.80;22.80;;;;;;;5.85;96.42;100447.79;106623;1263;72612;-90
2023/01/17 16:33:29;;;;;;;48.80;32.20;;;;;;;5.85;96.48;100445.52;106774;1262;62853;-93
2023/01/17 16:36:04;;;;;;;37.90;24.70;;;;;;;5.87;96.43;100447.02;106899;1262;60588;-89
2023/01/17 16:38:34;;;;;;;37.80;26.80;;;;;;;5.86;96.18;100451.20;106899;1268;75258;-89
2023/01/17 16:41:14;;;;;;;37.90;24.00;;;;;;;5.83;96.26;100449.77;108313;1260;63636;-88
2023/01/17 16:43:59;;;;;;;46.20;32.60;;;;;;;5.82;96.52;100452.92;107882;1260;72676;-89
2023/01/17 16:46:28;;;;;;;30.40;23.10;;;;;;;5.82;96.25;100456.23;106796;1262;61798;-90
2023/01/17 16:49:02;;;;;;;31.80;23.60;;;;;;;5.80;96.43;100455.94;106826;1261;61413;-91
2023/01/17 16:54:34;;;;;;;32.30;21.40;;;;;;;5.80;96.55;100457.70;104517;1292;600324;-91
2023/01/17 16:57:02;;;;;;;35.00;23.80;;;;;;;5.78;96.62;100459.52;106582;1264;62889;-90
2023/01/17 16:59:30;;;;;;;35.70;24.30;;;;;;;5.80;96.81;100467.23;106027;1266;60932;-91
2023/01/17 17:02:17;;;;;;;34.00;23.50;;;;;;;5.80;96.78;100469.50;106160;1263;74167;-90
2023/01/17 17:04:45;;;;;;;31.30;23.60;;;;;;;5.79;96.88;100466.56;108019;1262;62625;-90
2023/01/17 17:07:12;;;;;;;37.30;24.40;;;;;;;5.80;96.87;100469.14;106968;1268;924470;-91
2023/01/17 17:09:39;;;;;;;33.30;22.70;;;;;;;5.81;97.05;100469.29;106889;1260;64064;-89
2023/01/17 17:12:09;;;;;;;33.80;24.70;;;;;;;5.83;97.08;100471.80;107507;1257;61111;-89
2023/01/17 17:14:40;;;;;;;38.50;27.20;;;;;;;5.82;97.03;100467.89;106582;1262;73066;-91
2023/01/17 17:17:09;;;;;;;36.30;26.00;;;;;;;5.82;97.16;100471.86;107190;1254;66129;-92
2023/01/17 17:19:36;;;;;;;35.70;25.80;;;;;;;5.87;97.17;100479.80;107227;1257;75203;-89
2023/01/17 17:22:07;;;;;;;41.40;27.00;;;;;;;5.88;97.11;100474.58;107818;1253;62865;-91
2023/01/17 17:24:36;;;;;;;34.30;23.00;;;;;;;5.88;97.10;100477.17;107827;1253;59284;-89
2023/01/17 17:27:13;;;;;;;36.00;26.50;;;;;;;5.86;97.25;100482.42;107429;1254;73413;-90
2023/01/17 17:29:42;;;;;;;44.50;27.00;;;;;;;5.86;97.28;100486.77;107645;1259;62873;-92
2023/01/17 17:32:12;;;;;;;37.60;26.30;;;;;;;5.85;97.28;100487.51;107798;1252;73469;-93
2023/01/17 17:34:54;;;;;;;;;;;;;;;5.85;97.36;100487.86;107722;1253;63419;-92
2023/01/17 17:37:27;;;;;;;41.80;27.30;;;;;;;5.86;97.47;100471.70;107909;1255;60748;-92
2023/01/17 17:40:00;;;;;;;45.50;29.90;;;;;;;5.84;97.51;100467.96;107158;1251;75234;-92
2023/01/17 17:42:28;;;;;;;50.70;34.90;;;;;;;5.87;97.53;100466.11;107928;1250;64864;-92
2023/01/17 17:45:02;;;;;;;34.70;24.70;;;;;;;5.87;97.62;100465.05;107909;1253;74692;-91
2023/01/17 17:47:30;;;;;;;37.20;25.30;;;;;;;5.88;97.58;100462.24;107412;1254;62654;-91
2023/01/17 17:50:01;;;;;;;36.80;24.50;;;;;;;5.89;97.64;100466.52;107752;1253;60982;-92
2023/01/17 17:52:29;;;;;;;35.30;25.10;;;;;;;5.89;97.51;100463.75;107652;1252;75109;-90
2023/01/17 17:54:59;;;;;;;33.40;23.60;;;;;;;5.89;97.45;100463.59;108644;1252;65350;-88
2023/01/17 17:57:26;;;;;;;35.20;24.20;;;;;;;5.89;97.64;100466.90;109309;1253;73501;-91
2023/01/17 18:00:05;;;;;;;30.90;24.30;;;;;;;5.89;97.67;100468.97;108233;1252;62323;-92
2023/01/17 18:02:49;;;;;;;31.60;23.50;;;;;;;5.89;97.72;100464.09;107647;1253;61955;-91
2023/01/17 18:05:20;;;;;;;32.90;24.40;;;;;;;5.91;97.72;100468.17;107969;1254;73790;-92
2023/01/17 18:07:50;;;;;;;33.30;22.90;;;;;;;5.94;97.69;100473.61;108275;1251;65581;-90
2023/01/17 18:10:19;;;;;;;35.80;24.50;;;;;;;5.95;97.80;100476.54;107727;1256;72634;-90
2023/01/17 18:12:48;;;;;;;31.00;22.20;;;;;;;5.96;97.66;100477.35;107825;1253;63754;-92
2023/01/17 18:15:38;;;;;;;37.30;27.20;;;;;;;5.98;97.60;100478.65;107765;1252;61206;-89
2023/01/17 18:18:23;;;;;;;36.00;25.50;;;;;;;6.02;97.77;100483.34;107053;1257;75286;-93
2023/01/17 18:20:54;;;;;;;35.20;24.50;;;;;;;6.03;97.63;100481.20;107387;1254;62818;-91
2023/01/17 18:23:24;;;;;;;36.20;25.40;;;;;;;6.04;97.36;100480.66;106976;1254;73382;-92
2023/01/17 18:25:54;;;;;;;44.70;28.50;;;;;;;6.07;97.00;100487.46;107379;1254;61040;-90
2023/01/17 18:28:22;;;;;;;34.60;26.40;;;;;;;6.04;96.87;100492.29;106454;1254;62293;-91
2023/01/17 18:30:49;;;;;;;42.80;27.80;;;;;;;6.05;96.86;100496.59;106437;1253;74714;-90
2023/01/17 18:33:18;;;;;;;37.30;25.00;;;;;;;6.05;96.77;100495.20;106893;1254;64042;-90
2023/01/17 18:35:55;;;;;;;33.50;24.20;;;;;;;6.03;96.80;100494.77;107467;1259;72815;-90
2023/01/17 18:38:37;;;;;;;33.70;22.40;;;;;;;5.99;96.78;100498.90;107005;1253;64285;-91
2023/01/17 18:41:10;;;;;;;36.20;24.70;;;;;;;6.00;96.80;100490.70;106819;1254;62645;-90
2023/01/17 18:43:37;;;;;;;39.40;24.80;;;;;;;6.00;96.93;100492.10;108117;1253;75016;-91
2023/01/17 18:46:07;;;;;;;35.70;24.70;;;;;;;5.99;96.65;100488.31;109193;1253;65195;-88
2023/01/17 18:48:46;;;;;;;38.40;25.90;;;;;;;5.97;96.50;100492.23;108864;1253;73707;-88
2023/01/17 18:51:17;;;;;;;37.90;25.00;;;;;;;5.95;96.45;100490.05;107909;1254;62940;-91
2023/01/17 18:53:47;;;;;;;44.80;26.10;;;;;;;5.92;96.46;100486.70;107819;1250;62402;-91
2023/01/17 18:56:17;;;;;;;36.60;23.70;;;;;;;5.90;96.59;100479.70;107592;1251;73726;-89
2023/01/17 18:58:47;;;;;;;29.20;23.50;;;;;;;5.92;96.68;100476.27;107618;1251;65563;-91
2023/01/17 19:01:23;;;;;;;29.30;20.30;;;;;;;5.92;96.61;100469.70;108007;1252;73419;-90
2023/01/17 19:03:57;;;;;;;30.70;21.70;;;;;;;5.91;96.63;100466.98;107759;1251;61770;-88
2023/01/17 19:06:51;;;;;;;31.80;22.20;;;;;;;5.92;96.71;100468.82;107788;1251;59679;-89
2023/01/17 19:09:18;;;;;;;32.70;23.10;;;;;;;5.92;96.57;100469.00;109673;1250;74035;-90
2023/01/17 19:11:46;;;;;;;31.90;23.10;;;;;;;5.92;96.51;100473.36;110132;1249;64739;-90
2023/01/17 22:32:23;;;;;;;31.00;19.80;;;;;;;5.79;100.00;100505.98;107004;1281;612575;-86
2023/01/17 22:34:51;;;;;;;30.50;20.30;;;;;;;6.01;100.00;100497.77;108178;1267;171827;-86
2023/01/17 22:37:18;;;;;;;28.50;20.40;;;;;;;6.10;100.00;100491.85;108048;1265;61243;-86
2023/01/17 22:39:45;;;;;;;30.40;18.60;;;;;;;6.17;99.88;100491.90;108360;1260;73298;-87
2023/01/17 22:42:13;;;;;;;27.50;19.50;;;;;;;6.24;99.70;100495.60;105929;1260;65015;-88
2023/01/17 22:44:41;;;;;;;28.50;19.90;;;;;;;6.26;99.22;100494.44;108280;1256;72612;-87
2023/01/17 22:47:07;;;;;;;29.40;20.80;;;;;;;6.29;98.98;100490.14;109219;1257;60259;-87
2023/01/17 22:49:34;;;;;;;28.70;19.30;;;;;;;6.33;98.74;100482.50;109236;1257;61166;-86
2023/01/17 22:52:01;;;;;;;28.30;19.60;;;;;;;6.37;98.37;100484.08;109331;1257;73277;-86
2023/01/17 22:54:28;;;;;;;28.40;19.60;;;;;;;6.39;98.13;100479.83;106195;1263;64767;-87
2023/01/17 22:56:57;;;;;;;26.10;18.60;;;;;;;6.41;97.83;100479.35;105768;1257;74384;-88
2023/01/17 22:59:24;;;;;;;30.40;19.60;;;;;;;6.44;97.80;100476.30;105719;1260;60967;-89
2023/01/17 23:01:52;;;;;;;25.60;19.70;;;;;;;6.47;97.57;100478.92;105591;1255;62396;-90
2023/01/17 23:04:19;;;;;;;27.50;19.10;;;;;;;6.49;97.14;100473.81;105467;1262;74369;-91
2023/01/17 23:06:46;;;;;;;30.40;21.40;;;;;;;6.51;96.63;100479.45;105997;1256;64634;-86
2023/01/17 23:09:14;;;;;;;28.20;20.00;;;;;;;6.52;96.17;100480.46;106795;1257;73574;-88
2023/01/17 23:11:45;;;;;;;33.30;20.90;;;;;;;6.51;96.07;100478.25;106284;1256;64580;-88
2023/01/17 23:14:20;;;;;;;24.30;18.50;;;;;;;6.50;96.05;100479.64;106943;1262;61363;-84
2023/01/17 23:19:48;;;;;;;26.50;17.80;;;;;;;6.51;95.99;100478.05;108073;1257;64473;-86
2023/01/17 23:22:25;;;;;;;29.00;19.50;;;;;;;6.53;96.00;100483.51;107108;1257;74703;-88
2023/01/17 23:24:54;;;;;;;28.00;17.60;;;;;;;6.55;95.86;100480.64;107228;1258;64094;-86
2023/01/17 23:30:19;;;;;;;30.60;19.70;;;;;;;6.61;95.66;100477.44;105605;1256;73043;-89
2023/01/17 23:32:57;;;;;;;25.70;18.70;;;;;;;6.62;95.67;100479.43;105539;1259;65874;-87
2023/01/17 23:35:27;;;;;;;26.70;19.00;;;;;;;6.66;95.63;100474.96;105521;1257;74817;-91
2023/01/17 23:40:40;;;;;;;30.80;20.10;;;;;;;6.68;95.36;100475.73;107503;1255;61373;-85
2023/01/17 23:43:23;;;;;;;29.90;19.30;;;;;;;6.67;95.54;100479.92;106659;1256;73904;-86
2023/01/17 23:45:51;;;;;;;30.00;18.00;;;;;;;6.68;95.62;100482.31;106081;1262;66151;-85
2023/01/17 23:48:19;;;;;;;28.30;20.40;;;;;;;6.69;95.82;100479.69;105885;1258;73728;-86
2023/01/17 23:50:46;;;;;;;27.10;18.70;;;;;;;6.68;95.74;100471.03;105898;1260;62577;-86
2023/01/17 23:53:20;;;;;;;26.90;18.60;;;;;;;6.68;95.97;100468.61;105639;1262;60954;-87
2023/01/17 23:55:52;;;;;;;30.30;17.80;;;;;;;6.69;96.00;100474.30;105806;1260;74936;-85
2023/01/17 23:58:24;;;;;;;26.30;17.50;;;;;;;6.72;96.04;100478.33;106458;1255;66412;-88
